Time;durP1;ratioP1;P1;durP2;ratioP2;P2;SDS_P1;SDS_P2;PMS_P1;PMS_P2;Temp;Humidity;BMP_temperature;BMP_pressure;BME280_temperature;BME280_humidity;BME280_pressure;Samples;Min_cycle;Max_cycle;Signal;HPM_P1;HPM_P2
2022/03/11 00:01:10;;;;;;;11.20;5.88;;;13.80;71.50;;;;;;5033563;28;20066;-65
2022/03/11 00:03:36;;;;;;;9.73;6.35;;;14.00;74.20;;;;;;5027695;28;20029;-65
2022/03/11 00:06:02;;;;;;;10.13;6.50;;;13.80;74.70;;;;;;5014276;28;20559;-65
2022/03/11 00:08:28;;;;;;;13.30;6.38;;;14.00;74.20;;;;;;5032580;28;20503;-66
2022/03/11 00:10:53;;;;;;;10.43;6.68;;;13.70;74.10;;;;;;5032984;28;20052;-65
2022/03/11 00:13:19;;;;;;;11.68;6.82;;;13.80;74.50;;;;;;5033738;28;20046;-65
2022/03/11 00:15:45;;;;;;;11.02;6.57;;;14.00;74.40;;;;;;5034176;28;20053;-64
2022/03/11 00:18:11;;;;;;;11.70;7.07;;;13.70;74.50;;;;;;5033962;28;20483;-65
2022/03/11 00:20:36;;;;;;;10.75;6.45;;;13.90;74.60;;;;;;5026499;28;20052;-65
2022/03/11 00:23:02;;;;;;;11.70;6.38;;;13.60;71.10;;;;;;5028483;28;20037;-65
2022/03/11 00:25:30;;;;;;;11.10;6.97;;;13.40;74.10;;;;;;5033403;28;20045;-65
2022/03/11 00:27:59;;;;;;;10.93;6.80;;;13.40;74.20;;;;;;5033081;28;20180;-65
2022/03/11 00:30:26;;;;;;;11.70;6.95;;;13.90;74.40;;;;;;5019751;28;20634;-65
2022/03/11 00:32:52;;;;;;;11.75;7.38;;;;;;;;;;5030943;28;20399;-65
2022/03/11 00:35:18;;;;;;;12.23;7.40;;;13.50;74.40;;;;;;5015933;28;20053;-65
2022/03/11 00:37:44;;;;;;;13.57;7.75;;;13.80;74.60;;;;;;4999125;28;20080;-65
2022/03/11 00:40:13;;;;;;;12.10;7.65;;;13.50;74.60;;;;;;5033333;28;20142;-64
2022/03/11 00:42:39;;;;;;;11.18;7.97;;;13.60;74.40;;;;;;5015806;28;20050;-65
2022/03/11 00:45:05;;;;;;;11.40;7.30;;;13.80;74.60;;;;;;5028953;28;20045;-65
2022/03/11 00:47:31;;;;;;;12.45;7.43;;;13.60;74.40;;;;;;5033523;28;20048;-65
2022/03/11 00:49:57;;;;;;;12.88;7.93;;;;;;;;;;5032122;28;20081;-64
2022/03/11 00:52:23;;;;;;;12.95;8.25;;;13.50;74.40;;;;;;5032944;28;20053;-64
2022/03/11 00:54:49;;;;;;;10.57;7.38;;;;;;;;;;5024489;28;20045;-65
2022/03/11 00:57:16;;;;;;;13.27;8.93;;;13.60;74.50;;;;;;5013797;28;20042;-66
2022/03/11 00:59:42;;;;;;;14.95;9.23;;;13.60;74.70;;;;;;5012339;28;20399;-65
2022/03/11 01:02:08;;;;;;;13.73;8.77;;;13.60;75.30;;;;;;4999297;28;20112;-66
2022/03/11 01:04:34;;;;;;;13.82;9.38;;;13.70;75.00;;;;;;5031654;28;20121;-64
2022/03/11 01:07:01;;;;;;;14.20;8.68;;;13.60;74.70;;;;;;5031454;28;20124;-65
2022/03/11 01:09:28;;;;;;;16.15;9.48;;;13.80;74.90;;;;;;5001081;28;20107;-65
2022/03/11 01:11:53;;;;;;;16.25;10.10;;;13.60;74.70;;;;;;5029172;28;20045;-65
2022/03/11 01:14:19;;;;;;;15.32;8.88;;;13.60;74.70;;;;;;5031422;28;20491;-64
2022/03/11 01:16:45;;;;;;;16.98;10.32;;;13.20;74.70;;;;;;5030947;28;20045;-65
2022/03/11 01:19:11;;;;;;;16.02;10.40;;;13.60;75.40;;;;;;5033026;28;20168;-65
2022/03/11 01:21:36;;;;;;;18.20;10.25;;;13.50;74.70;;;;;;5031637;28;20057;-64
2022/03/11 01:24:02;;;;;;;16.17;10.10;;;13.30;74.70;;;;;;5032873;28;20487;-63
2022/03/11 01:26:29;;;;;;;15.15;10.30;;;13.50;75.00;;;;;;5031269;28;20077;-62
2022/03/11 01:28:54;;;;;;;16.13;10.38;;;13.30;74.90;;;;;;5024466;28;20391;-62
2022/03/11 01:31:20;;;;;;;16.27;10.75;;;13.20;74.70;;;;;;5019291;28;20045;-62
2022/03/11 01:33:46;;;;;;;18.15;10.95;;;13.30;74.90;;;;;;5036302;28;20038;-63
2022/03/11 01:36:12;;;;;;;18.17;11.30;;;13.00;74.70;;;;;;5044858;28;20048;-63
2022/03/11 01:38:38;;;;;;;16.65;11.05;;;13.30;72.30;;;;;;5036657;28;20115;-63
2022/03/11 01:41:04;;;;;;;16.33;10.52;;;13.30;75.00;;;;;;5031946;28;20062;-62
2022/03/11 01:43:30;;;;;;;19.30;12.43;;;13.00;75.00;;;;;;5029316;28;20056;-62
2022/03/11 01:45:56;;;;;;;18.50;11.60;;;13.20;74.80;;;;;;5027213;28;20042;-63
2022/03/11 01:48:22;;;;;;;18.23;12.07;;;13.30;75.00;;;;;;5036766;28;20057;-63
2022/03/11 01:50:48;;;;;;;17.05;11.00;;;13.40;75.10;;;;;;5036233;28;20376;-61
2022/03/11 01:53:14;;;;;;;16.88;11.52;;;13.20;74.90;;;;;;5052078;28;20041;-62
2022/03/11 01:55:39;;;;;;;20.23;12.30;;;13.60;75.10;;;;;;5034976;28;20049;-62
2022/03/11 01:58:06;;;;;;;18.17;12.23;;;13.10;75.10;;;;;;5034978;28;20492;-62
2022/03/11 02:00:34;;;;;;;20.85;12.15;;;;;;;;;;5035058;28;20042;-61
2022/03/11 02:03:00;;;;;;;18.90;11.95;;;13.20;75.00;;;;;;5026896;28;20046;-63
2022/03/11 02:05:26;;;;;;;18.25;11.73;;;13.10;75.10;;;;;;5022249;28;20033;-62
2022/03/11 02:07:52;;;;;;;19.40;13.32;;;13.30;75.40;;;;;;5051375;28;20076;-65
2022/03/11 02:10:18;;;;;;;19.05;11.98;;;13.20;75.10;;;;;;5051286;28;20041;-65
2022/03/11 02:12:44;;;;;;;20.02;11.75;;;;;;;;;;5036012;28;20038;-64
2022/03/11 02:15:10;;;;;;;17.88;12.23;;;13.00;72.60;;;;;;5033593;28;20049;-64
2022/03/11 02:17:36;;;;;;;19.58;12.43;;;13.40;75.40;;;;;;5051059;28;20045;-65
2022/03/11 02:20:03;;;;;;;17.63;12.30;;;13.10;75.40;;;;;;5030466;28;20041;-65
2022/03/11 02:22:29;;;;;;;19.48;13.20;;;13.20;75.30;;;;;;5034403;28;20390;-65
2022/03/11 02:24:55;;;;;;;19.05;13.32;;;13.10;75.20;;;;;;5051260;28;20038;-65
2022/03/11 02:27:22;;;;;;;19.23;12.95;;;12.90;75.10;;;;;;5034155;28;20487;-65
2022/03/11 02:29:48;;;;;;;21.80;13.38;;;13.10;75.20;;;;;;5032963;28;20448;-62
2022/03/11 02:32:13;;;;;;;20.77;12.95;;;13.10;75.60;;;;;;5036021;28;20072;-64
2022/03/11 02:34:40;;;;;;;19.70;13.05;;;13.00;72.80;;;;;;5034511;28;20503;-64
2022/03/11 02:37:06;;;;;;;20.00;13.27;;;13.00;73.80;;;;;;5033444;28;20061;-63
2022/03/11 02:39:32;;;;;;;20.73;13.32;;;12.80;75.20;;;;;;5040268;28;20406;-64
2022/03/11 02:41:58;;;;;;;18.85;12.38;;;13.00;75.40;;;;;;5041526;28;20041;-62
2022/03/11 02:44:25;;;;;;;18.98;12.20;;;12.90;75.40;;;;;;5034276;28;20049;-63
2022/03/11 02:46:50;;;;;;;21.67;14.23;;;12.90;72.80;;;;;;5034789;28;20095;-62
2022/03/11 02:49:17;;;;;;;18.35;13.18;;;;;;;;;;5034987;28;20490;-62
2022/03/11 02:51:42;;;;;;;19.77;12.77;;;12.90;75.30;;;;;;5035129;28;20411;-63
2022/03/11 02:54:08;;;;;;;20.27;13.43;;;;;;;;;;5024796;28;20042;-62
2022/03/11 02:56:35;;;;;;;21.75;12.93;;;;;;;;;;5034204;28;20406;-62
2022/03/11 02:59:00;;;;;;;22.35;13.85;;;12.80;72.80;;;;;;5034864;28;20126;-65
2022/03/11 03:01:26;;;;;;;19.10;12.93;;;;;;;;;;5035672;28;20077;-65
2022/03/11 03:03:52;;;;;;;19.02;13.68;;;12.70;72.80;;;;;;5035603;28;20045;-64
2022/03/11 03:06:18;;;;;;;19.83;13.40;;;12.80;75.50;;;;;;5035908;28;20049;-63
2022/03/11 03:08:44;;;;;;;20.02;13.48;;;12.90;75.60;;;;;;5034412;28;20124;-62
2022/03/11 03:11:10;;;;;;;20.80;13.20;;;12.70;72.80;;;;;;5024697;28;20407;-62
2022/03/11 03:13:35;;;;;;;19.33;14.10;;;12.70;75.70;;;;;;5015206;28;20044;-62
2022/03/11 03:16:01;;;;;;;18.70;13.05;;;12.70;76.30;;;;;;5015580;28;20046;-62
2022/03/11 03:18:27;;;;;;;21.25;13.65;;;12.80;75.50;;;;;;5015593;28;20396;-62
2022/03/11 03:20:52;;;;;;;19.45;13.15;;;12.80;75.50;;;;;;5014288;28;20061;-62
2022/03/11 03:23:18;;;;;;;18.08;13.32;;;12.70;75.40;;;;;;5014226;28;20487;-62
2022/03/11 03:25:44;;;;;;;20.55;13.77;;;12.80;75.60;;;;;;5015197;28;20492;-63
2022/03/11 03:28:12;;;;;;;21.40;13.15;;;;;;;;;;5031148;28;20096;-63
2022/03/11 03:30:37;;;;;;;18.52;13.18;;;12.80;75.50;;;;;;5015375;28;20081;-65
2022/03/11 03:33:03;;;;;;;20.55;13.77;;;12.70;75.50;;;;;;5015000;28;20088;-62
2022/03/11 03:35:29;;;;;;;20.10;12.48;;;12.50;75.70;;;;;;5013747;28;20045;-62
2022/03/11 03:37:55;;;;;;;18.33;13.27;;;12.60;75.50;;;;;;5013724;28;20129;-62
2022/03/11 03:40:20;;;;;;;21.05;13.35;;;12.60;75.50;;;;;;5013538;28;20056;-62
2022/03/11 03:42:47;;;;;;;22.00;13.90;;;12.60;72.90;;;;;;5014727;28;20061;-62
2022/03/11 03:45:12;;;;;;;21.38;13.63;;;12.60;75.40;;;;;;5025036;28;20061;-64
2022/03/11 03:47:38;;;;;;;19.45;13.50;;;12.70;72.90;;;;;;5034774;28;20050;-62
2022/03/11 03:50:04;;;;;;;19.35;13.63;;;12.60;75.60;;;;;;5016908;28;20477;-62
2022/03/11 03:52:30;;;;;;;19.00;13.38;;;12.70;75.60;;;;;;5034766;28;20396;-62
2022/03/11 03:54:56;;;;;;;21.35;13.38;;;12.90;75.70;;;;;;5033394;28;20172;-62
2022/03/11 03:57:22;;;;;;;18.98;13.10;;;;;;;;;;5034534;28;20469;-62
2022/03/11 03:59:48;;;;;;;19.27;13.15;;;12.30;72.90;;;;;;5033354;28;20056;-62
2022/03/11 04:02:14;;;;;;;21.60;13.77;;;12.50;75.60;;;;;;5030832;28;20029;-62
2022/03/11 04:04:40;;;;;;;19.30;13.23;;;12.50;75.70;;;;;;5054431;28;20045;-63
2022/03/11 04:07:05;;;;;;;18.65;13.13;;;12.40;72.90;;;;;;5054068;28;20091;-62
2022/03/11 04:09:31;;;;;;;19.35;12.95;;;12.30;75.40;;;;;;5052844;28;20076;-63
2022/03/11 04:11:57;;;;;;;22.38;13.30;;;12.40;75.60;;;;;;5054167;28;20048;-62
2022/03/11 04:14:23;;;;;;;23.48;13.35;;;12.20;75.50;;;;;;5053835;28;20032;-62
2022/03/11 04:16:48;;;;;;;19.85;13.32;;;12.30;75.60;;;;;;5052634;28;20120;-62
2022/03/11 04:19:14;;;;;;;19.70;12.90;;;12.40;75.60;;;;;;5030869;28;20539;-63
2022/03/11 04:21:40;;;;;;;18.85;13.23;;;12.40;75.60;;;;;;5014491;28;20553;-62
2022/03/11 04:24:12;;;;;;;18.58;13.40;;;12.50;75.80;;;;;;5014443;28;20114;-63
2022/03/11 04:26:40;;;;;;;20.80;13.68;;;12.10;72.40;;;;;;5014434;28;20045;-62
2022/03/11 04:29:06;;;;;;;18.75;12.73;;;12.50;75.90;;;;;;5013049;28;20132;-64
2022/03/11 04:31:32;;;;;;;19.67;13.20;;;12.50;75.90;;;;;;5014311;28;20130;-63
2022/03/11 04:33:57;;;;;;;18.98;13.65;;;12.00;75.40;;;;;;5012642;28;20400;-65
2022/03/11 04:36:23;;;;;;;18.15;13.13;;;12.40;75.80;;;;;;5014599;28;20121;-63
2022/03/11 04:38:49;;;;;;;18.55;12.88;;;12.30;75.60;;;;;;5029179;28;20619;-62
2022/03/11 04:41:15;;;;;;;17.48;12.07;;;12.40;75.70;;;;;;5013869;28;20504;-62
2022/03/11 04:43:42;;;;;;;18.20;13.07;;;;;;;;;;5013705;28;20111;-62
2022/03/11 04:46:08;;;;;;;19.30;12.48;;;12.20;75.50;;;;;;5017227;28;20042;-62
2022/03/11 04:48:36;;;;;;;19.30;12.32;;;12.50;75.70;;;;;;5032502;28;20399;-61
2022/03/11 04:51:05;;;;;;;17.27;12.50;;;12.50;75.90;;;;;;5033305;28;20052;-62
2022/03/11 04:53:30;;;;;;;18.20;12.23;;;12.10;75.90;;;;;;5020267;28;20045;-64
2022/03/11 04:55:56;;;;;;;18.33;12.25;;;12.30;73.20;;;;;;5013919;28;20128;-63
2022/03/11 04:58:22;;;;;;;18.75;12.65;;;12.30;75.70;;;;;;5013636;28;20053;-62
2022/03/11 05:00:48;;;;;;;20.13;12.65;;;12.20;73.10;;;;;;5020568;28;20400;-63
2022/03/11 05:03:13;;;;;;;18.52;12.85;;;12.40;75.80;;;;;;5033637;28;20475;-61
2022/03/11 05:05:39;;;;;;;19.88;12.88;;;12.10;75.80;;;;;;5033322;28;20461;-62
2022/03/11 05:08:05;;;;;;;17.73;12.68;;;12.00;73.00;;;;;;5033023;28;20041;-62
2022/03/11 05:10:31;;;;;;;20.30;12.85;;;12.30;75.70;;;;;;5031976;28;20499;-62
2022/03/11 05:12:56;;;;;;;18.83;13.38;;;12.40;75.80;;;;;;5033299;28;20052;-62
2022/03/11 05:15:24;;;;;;;18.40;12.68;;;12.20;75.70;;;;;;5033509;28;20055;-62
2022/03/11 05:17:51;;;;;;;17.00;12.32;;;11.80;75.60;;;;;;5033435;28;20402;-63
2022/03/11 05:20:17;;;;;;;18.08;12.30;;;12.00;75.60;;;;;;5032167;28;20115;-62
2022/03/11 05:22:43;;;;;;;20.23;13.27;;;11.70;75.40;;;;;;5032139;28;20403;-63
2022/03/11 05:25:09;;;;;;;20.55;13.25;;;11.90;72.20;;;;;;5048846;28;20041;-62
2022/03/11 05:27:35;;;;;;;19.52;13.10;;;12.00;75.60;;;;;;5032277;28;20041;-62
2022/03/11 05:30:01;;;;;;;19.33;11.63;;;11.90;75.70;;;;;;5033007;28;20087;-62
2022/03/11 05:32:27;;;;;;;19.77;12.50;;;12.20;73.60;;;;;;5031853;28;20069;-62
2022/03/11 05:34:53;;;;;;;19.00;13.30;;;;;;;;;;5031927;28;20080;-65
2022/03/11 05:37:19;;;;;;;17.95;13.07;;;11.80;75.40;;;;;;5032945;28;20052;-62
2022/03/11 05:39:44;;;;;;;17.15;12.00;;;12.00;75.60;;;;;;5032941;28;20053;-62
2022/03/11 05:42:10;;;;;;;17.48;11.95;;;12.00;75.50;;;;;;5031542;28;20407;-62
2022/03/11 05:44:38;;;;;;;17.80;12.43;;;11.90;72.90;;;;;;5032343;28;20048;-62
2022/03/11 05:47:04;;;;;;;19.55;13.43;;;;;;;;;;5032759;28;20128;-62
2022/03/11 05:49:30;;;;;;;20.65;13.30;;;11.90;75.60;;;;;;5031924;28;20045;-62
2022/03/11 05:51:55;;;;;;;18.48;12.60;;;11.90;75.60;;;;;;5031665;28;20171;-62
2022/03/11 05:54:21;;;;;;;18.98;12.38;;;12.00;75.60;;;;;;5031824;28;20045;-63
2022/03/11 05:56:53;;;;;;;18.77;12.75;;;12.10;73.10;;;;;;5031242;28;20506;-62
2022/03/11 05:59:19;;;;;;;20.83;12.63;;;11.90;75.50;;;;;;5011826;28;20503;-62
2022/03/11 06:01:45;;;;;;;19.67;12.77;;;11.80;75.60;;;;;;5027945;28;20300;-63
2022/03/11 06:04:11;;;;;;;18.80;13.00;;;11.90;75.60;;;;;;5032777;28;20045;-62
2022/03/11 06:06:37;;;;;;;19.48;12.48;;;12.10;75.80;;;;;;5033020;28;20049;-62
2022/03/11 06:09:03;;;;;;;19.15;12.52;;;11.40;75.20;;;;;;5033078;28;20060;-62
2022/03/11 06:11:29;;;;;;;17.02;11.48;;;11.90;75.50;;;;;;5032811;28;20111;-62
2022/03/11 06:13:55;;;;;;;17.38;11.65;;;;;;;;;;5032709;28;20499;-62
2022/03/11 06:16:22;;;;;;;17.77;12.48;;;11.90;75.20;;;;;;5032567;28;20498;-63
2022/03/11 06:18:47;;;;;;;18.05;12.73;;;12.00;75.60;;;;;;5031240;28;20049;-63
2022/03/11 06:21:13;;;;;;;20.70;12.95;;;12.00;75.50;;;;;;5032789;28;20046;-63
2022/03/11 06:23:39;;;;;;;18.83;12.55;;;12.00;75.30;;;;;;5036392;28;20037;-63
2022/03/11 06:26:05;;;;;;;19.73;12.57;;;12.10;75.30;;;;;;5034820;28;20068;-63
2022/03/11 06:28:31;;;;;;;19.20;12.45;;;12.10;75.20;;;;;;5051745;28;20037;-63
2022/03/11 06:30:57;;;;;;;20.52;12.48;;;;;;;;;;5035041;28;20129;-63
2022/03/11 06:33:22;;;;;;;18.42;12.63;;;12.50;75.50;;;;;;5036050;28;20562;-62
2022/03/11 06:35:49;;;;;;;20.00;12.88;;;12.20;74.70;;;;;;5035281;28;20076;-62
2022/03/11 06:38:15;;;;;;;18.27;12.00;;;12.50;74.90;;;;;;5035696;28;20042;-62
2022/03/11 06:40:41;;;;;;;18.17;11.68;;;12.40;74.80;;;;;;5034630;28;20136;-63
2022/03/11 06:43:07;;;;;;;19.33;12.38;;;12.40;74.60;;;;;;5035623;28;20050;-62
2022/03/11 06:45:33;;;;;;;17.83;12.70;;;12.50;74.60;;;;;;5034464;28;20057;-64
2022/03/11 06:47:58;;;;;;;18.80;12.07;;;12.60;74.90;;;;;;5035901;28;20056;-62
2022/03/11 06:50:25;;;;;;;20.40;12.50;;;12.60;72.00;;;;;;5035615;28;20049;-62
2022/03/11 06:52:51;;;;;;;18.33;12.40;;;12.30;74.20;;;;;;5035080;28;20048;-62
2022/03/11 06:55:16;;;;;;;19.25;13.10;;;12.70;74.20;;;;;;5035809;28;20046;-62
2022/03/11 06:57:44;;;;;;;19.08;12.77;;;;;;;;;;5036071;28;20107;-61
2022/03/11 07:00:11;;;;;;;17.92;12.02;;;;;;;;;;5035503;28;20057;-62
2022/03/11 07:02:37;;;;;;;17.60;11.90;;;13.00;71.20;;;;;;5051056;28;20101;-61
2022/03/11 07:05:06;;;;;;;17.08;11.60;;;13.30;73.80;;;;;;5035116;28;20045;-65
2022/03/11 07:07:33;;;;;;;17.67;12.25;;;13.40;73.70;;;;;;5033663;28;20054;-62
2022/03/11 07:10:00;;;;;;;18.73;12.05;;;13.20;73.60;;;;;;5031976;28;20123;-62
2022/03/11 07:12:27;;;;;;;19.42;11.98;;;13.50;73.40;;;;;;5035050;28;20092;-62
2022/03/11 07:14:53;;;;;;;18.98;12.43;;;13.50;73.40;;;;;;5033910;28;20049;-63
2022/03/11 07:17:19;;;;;;;19.20;11.68;;;13.50;72.90;;;;;;5035367;28;20106;-62
2022/03/11 07:19:45;;;;;;;17.73;12.77;;;13.70;72.90;;;;;;5035392;28;20040;-64
2022/03/11 07:22:10;;;;;;;18.52;11.77;;;13.80;72.80;;;;;;5033854;28;20149;-63
2022/03/11 07:24:36;;;;;;;18.63;12.88;;;13.80;72.20;;;;;;5035259;28;20042;-61
2022/03/11 07:27:02;;;;;;;17.48;12.00;;;13.90;70.50;;;;;;5017113;28;20049;-63
2022/03/11 07:29:28;;;;;;;22.40;12.38;;;14.10;72.50;;;;;;5015450;28;20041;-62
2022/03/11 07:31:54;;;;;;;17.85;12.52;;;;;;;;;;5014933;28;20127;-63
2022/03/11 07:34:21;;;;;;;17.63;12.57;;;14.20;72.00;;;;;;5014269;28;20046;-66
2022/03/11 07:36:46;;;;;;;18.50;12.00;;;14.40;72.20;;;;;;5014746;28;20050;-65
2022/03/11 07:39:12;;;;;;;18.48;13.00;;;14.00;71.70;;;;;;5014589;28;20042;-65
2022/03/11 07:41:38;;;;;;;20.20;13.52;;;14.30;71.80;;;;;;5013477;28;20057;-66
2022/03/11 07:44:04;;;;;;;21.42;12.50;;;14.40;71.70;;;;;;5031320;28;20053;-62
2022/03/11 07:46:30;;;;;;;16.92;12.05;;;14.50;71.60;;;;;;5034811;28;20438;-63
2022/03/11 07:48:57;;;;;;;17.20;12.25;;;;;;;;;;5035328;28;20050;-62
2022/03/11 07:51:23;;;;;;;18.63;12.55;;;14.80;68.70;;;;;;5034797;28;20064;-62
2022/03/11 07:53:48;;;;;;;19.00;12.98;;;14.60;71.30;;;;;;5034752;28;20049;-63
2022/03/11 07:56:15;;;;;;;18.23;12.75;;;;;;;;;;5034588;28;20124;-62
2022/03/11 07:58:41;;;;;;;18.63;12.63;;;14.50;68.20;;;;;;5034609;28;20051;-62
2022/03/11 08:01:12;;;;;;;18.30;12.40;;;14.90;66.70;;;;;;5033448;28;20092;-61
2022/03/11 08:03:39;;;;;;;16.70;12.07;;;14.90;71.00;;;;;;5034612;28;20041;-61
2022/03/11 08:06:05;;;;;;;16.90;12.43;;;14.60;70.70;;;;;;5049803;28;20124;-62
2022/03/11 08:08:31;;;;;;;17.92;12.57;;;15.10;70.90;;;;;;5034148;28;20541;-62
2022/03/11 08:10:57;;;;;;;20.52;12.68;;;15.10;70.70;;;;;;5032920;28;20097;-61
2022/03/11 08:13:23;;;;;;;20.27;12.98;;;15.20;70.70;;;;;;5033883;28;20089;-62
2022/03/11 08:15:49;;;;;;;20.45;13.20;;;;;;;;;;5049419;28;20045;-62
2022/03/11 08:18:15;;;;;;;18.23;13.15;;;14.70;70.10;;;;;;5026817;28;20037;-62
2022/03/11 08:20:41;;;;;;;18.98;12.85;;;15.40;70.40;;;;;;5032583;28;20407;-61
2022/03/11 08:23:08;;;;;;;18.25;12.98;;;14.90;70.20;;;;;;5034229;28;20506;-61
2022/03/11 08:25:35;;;;;;;20.17;13.13;;;15.10;70.10;;;;;;5033830;28;20481;-62
2022/03/11 08:28:01;;;;;;;18.65;13.30;;;15.10;70.10;;;;;;5029026;28;20069;-63
2022/03/11 08:30:27;;;;;;;19.40;13.07;;;15.10;70.10;;;;;;5033733;28;20215;-61
2022/03/11 08:32:53;;;;;;;18.35;13.07;;;;;;;;;;5033119;28;20037;-64
2022/03/11 08:35:19;;;;;;;19.73;13.85;;;14.90;69.70;;;;;;5014018;28;20046;-64
2022/03/11 08:37:46;;;;;;;17.88;12.48;;;15.30;69.90;;;;;;5012514;28;20049;-64
2022/03/11 08:40:12;;;;;;;19.25;13.43;;;15.10;69.80;;;;;;5029152;28;20062;-65
2022/03/11 08:42:40;;;;;;;19.00;13.00;;;15.30;69.80;;;;;;5013730;28;20055;-64
2022/03/11 08:45:07;;;;;;;19.13;12.63;;;15.40;69.60;;;;;;5013180;28;20038;-64
2022/03/11 08:47:32;;;;;;;17.25;12.93;;;15.10;66.80;;;;;;5028765;28;20507;-64
2022/03/11 08:49:58;;;;;;;23.60;12.85;;;15.30;69.60;;;;;;5032926;28;20045;-63
2022/03/11 08:52:25;;;;;;;19.52;13.63;;;15.50;66.90;;;;;;5032246;28;20045;-62
2022/03/11 08:54:51;;;;;;;19.77;13.63;;;15.50;69.70;;;;;;5048698;28;20107;-62
2022/03/11 08:57:17;;;;;;;17.27;12.75;;;15.40;69.60;;;;;;5033285;28;20135;-61
2022/03/11 08:59:43;;;;;;;18.60;12.88;;;15.30;66.80;;;;;;5033694;28;20120;-62
2022/03/11 09:02:09;;;;;;;18.83;13.43;;;15.50;69.70;;;;;;5033289;28;20174;-62
2022/03/11 09:04:35;;;;;;;20.98;13.27;;;15.20;69.60;;;;;;5033909;28;20053;-62
2022/03/11 09:07:02;;;;;;;20.33;12.23;;;15.30;69.60;;;;;;5032747;28;20408;-62
2022/03/11 09:09:29;;;;;;;17.98;12.73;;;15.50;69.70;;;;;;5033244;28;20052;-62
2022/03/11 09:11:55;;;;;;;17.98;12.80;;;15.40;69.60;;;;;;5033119;28;20094;-62
2022/03/11 09:14:21;;;;;;;20.20;13.50;;;;;;;;;;5033121;28;20505;-62
2022/03/11 09:16:47;;;;;;;20.80;12.35;;;15.20;66.60;;;;;;5033151;28;20128;-62
2022/03/11 09:19:13;;;;;;;22.40;13.02;;;15.50;69.50;;;;;;5048505;28;20116;-64
2022/03/11 09:21:39;;;;;;;19.80;13.27;;;15.20;69.30;;;;;;5033447;28;20060;-61
2022/03/11 09:24:06;;;;;;;20.05;12.90;;;;;;;;;;5029237;28;20083;-63
2022/03/11 09:26:32;;;;;;;21.15;13.15;;;15.30;69.10;;;;;;5026491;28;20061;-64
2022/03/11 09:28:58;;;;;;;17.63;12.57;;;15.60;69.40;;;;;;5023309;28;20037;-65
2022/03/11 09:31:23;;;;;;;19.75;13.10;;;15.50;69.30;;;;;;5043340;28;20084;-64
2022/03/11 09:33:49;;;;;;;17.42;11.68;;;15.40;69.20;;;;;;5043263;28;20132;-64
2022/03/11 09:36:15;;;;;;;21.25;11.88;;;15.50;69.20;;;;;;5032118;28;20049;-65
2022/03/11 09:38:41;;;;;;;20.50;12.38;;;15.50;69.20;;;;;;5032908;28;20511;-61
2022/03/11 09:41:07;;;;;;;17.27;12.65;;;15.40;69.00;;;;;;5030727;28;20057;-65
2022/03/11 09:43:33;;;;;;;22.13;12.10;;;15.30;69.00;;;;;;5032835;28;20391;-64
2022/03/11 09:45:59;;;;;;;17.60;12.43;;;15.10;68.90;;;;;;5048033;28;20574;-63
2022/03/11 09:48:25;;;;;;;20.10;13.55;;;15.20;66.20;;;;;;5031918;28;20088;-64
2022/03/11 09:50:51;;;;;;;19.92;12.55;;;15.20;68.90;;;;;;5031579;28;20373;-64
2022/03/11 09:53:18;;;;;;;19.70;12.32;;;15.20;68.90;;;;;;5031989;28;20095;-64
2022/03/11 09:55:44;;;;;;;21.60;12.77;;;;;;;;;;5034019;28;20484;-64
2022/03/11 09:58:10;;;;;;;15.68;11.73;;;15.20;69.00;;;;;;5034972;28;20173;-64
2022/03/11 10:00:36;;;;;;;20.05;13.40;;;15.00;68.90;;;;;;5036881;28;20427;-62
2022/03/11 10:03:03;;;;;;;21.80;12.20;;;15.00;68.90;;;;;;5051963;28;20072;-61
2022/03/11 10:05:51;;;;;;;20.10;11.70;;;14.80;66.20;;;;;;5036572;28;20045;-62
2022/03/11 10:08:30;;;;;;;17.92;12.27;;;14.90;68.80;;;;;;5052160;28;20041;-62
2022/03/11 10:11:01;;;;;;;16.98;12.05;;;14.80;68.80;;;;;;5052065;28;20128;-65
2022/03/11 10:13:37;;;;;;;17.02;11.85;;;14.80;68.80;;;;;;5034170;28;20045;-61
2022/03/11 10:16:16;;;;;;;20.40;12.40;;;;;;;;;;5050371;28;20045;-62
2022/03/11 10:18:45;;;;;;;18.38;11.75;;;14.70;66.10;;;;;;5036225;28;20046;-61
2022/03/11 10:21:12;;;;;;;17.33;12.05;;;14.80;68.80;;;;;;5036289;28;20390;-62
2022/03/11 10:23:48;;;;;;;18.55;11.90;;;14.80;68.80;;;;;;5036176;28;20042;-62
2022/03/11 10:26:16;;;;;;;19.70;11.70;;;14.60;68.70;;;;;;5036109;28;20085;-62
2022/03/11 10:28:42;;;;;;;17.98;11.07;;;14.90;68.80;;;;;;5018982;28;20061;-62
2022/03/11 10:31:10;;;;;;;17.70;11.90;;;;;;;;;;5034789;28;20046;-62
2022/03/11 10:33:36;;;;;;;16.77;10.65;;;15.00;68.70;;;;;;5021501;28;20042;-60
2022/03/11 10:36:03;;;;;;;19.27;11.57;;;14.90;68.70;;;;;;5014802;28;20488;-61
2022/03/11 10:38:36;;;;;;;18.35;11.75;;;;;;;;;;5036346;28;20128;-62
2022/03/11 10:41:02;;;;;;;20.15;11.52;;;14.90;68.50;;;;;;5034442;28;20058;-61
2022/03/11 10:43:29;;;;;;;18.70;11.48;;;15.10;68.70;;;;;;5036174;28;20053;-61
2022/03/11 10:46:01;;;;;;;17.73;11.05;;;14.60;68.40;;;;;;5034741;28;20403;-61
2022/03/11 10:48:51;;;;;;;15.68;10.75;;;15.10;65.30;;;;;;5036320;28;20052;-61
2022/03/11 10:51:33;;;;;;;16.83;10.45;;;15.20;64.40;;;;;;4994279;28;20055;-61
2022/03/11 10:54:00;;;;;;;14.95;10.75;;;15.10;68.60;;;;;;4994385;28;20054;-62
2022/03/11 10:56:35;;;;;;;15.95;10.80;;;15.10;64.30;;;;;;4978104;28;20066;-61
2022/03/11 10:59:21;;;;;;;15.65;10.57;;;15.10;65.80;;;;;;4994392;28;20054;-61
2022/03/11 11:01:47;;;;;;;18.52;10.45;;;15.00;68.40;;;;;;4993983;28;20086;-61
2022/03/11 11:04:15;;;;;;;17.17;10.85;;;15.00;68.30;;;;;;4993947;28;20050;-61
2022/03/11 11:06:44;;;;;;;17.30;10.50;;;15.20;68.40;;;;;;4977754;28;20396;-61
2022/03/11 11:09:11;;;;;;;14.80;10.32;;;;;;;;;;4977428;28;20065;-61
2022/03/11 11:11:37;;;;;;;21.25;10.52;;;15.10;68.10;;;;;;4978008;28;20223;-61
2022/03/11 11:14:05;;;;;;;16.63;10.52;;;15.30;68.20;;;;;;4977556;28;20057;-61
2022/03/11 11:16:39;;;;;;;14.55;10.75;;;15.20;68.10;;;;;;4977581;28;20528;-61
2022/03/11 11:19:17;;;;;;;14.48;10.68;;;15.20;68.00;;;;;;4978479;28;20042;-61
2022/03/11 11:21:47;;;;;;;14.70;10.27;;;15.40;68.00;;;;;;4977566;28;20050;-61
2022/03/11 11:24:21;;;;;;;16.23;10.57;;;15.40;64.90;;;;;;4973251;28;20046;-62
2022/03/11 11:26:48;;;;;;;17.33;10.52;;;;;;;;;;4973508;28;20170;-61
2022/03/11 11:29:24;;;;;;;15.20;9.65;;;15.50;67.80;;;;;;4992603;28;20051;-61
2022/03/11 11:31:50;;;;;;;15.45;10.57;;;15.60;65.10;;;;;;5007014;28;20053;-62
2022/03/11 11:34:30;;;;;;;16.02;9.85;;;15.70;67.80;;;;;;5013658;28;20061;-61
2022/03/11 11:36:56;;;;;;;15.00;10.10;;;15.70;67.70;;;;;;5013746;28;20050;-62
2022/03/11 11:39:41;;;;;;;15.18;10.52;;;15.80;65.00;;;;;;5013752;28;20086;-61
2022/03/11 11:42:09;;;;;;;14.80;9.52;;;15.40;67.40;;;;;;5013774;28;20129;-61
2022/03/11 11:44:39;;;;;;;15.45;9.88;;;;;;;;;;5015116;28;20423;-61
2022/03/11 11:47:23;;;;;;;15.63;10.02;;;15.70;63.00;;;;;;5014637;28;20053;-61
2022/03/11 11:49:51;;;;;;;14.98;10.02;;;15.70;67.00;;;;;;5017355;28;20048;-66
2022/03/11 11:52:30;;;;;;;15.98;10.13;;;15.80;64.40;;;;;;5022557;28;20395;-63
2022/03/11 11:55:17;;;;;;;16.02;10.32;;;15.80;66.90;;;;;;5015278;28;20050;-61
2022/03/11 11:57:46;;;;;;;16.70;9.95;;;15.60;66.90;;;;;;5014391;28;20045;-62
2022/03/11 12:00:27;;;;;;;16.63;10.45;;;15.60;66.90;;;;;;5013565;28;20061;-62
2022/03/11 12:02:53;;;;;;;14.68;10.13;;;15.90;66.70;;;;;;5013216;28;20057;-63
2022/03/11 12:05:41;;;;;;;16.08;10.65;;;16.10;64.00;;;;;;5014791;28;20451;-61
2022/03/11 12:08:09;;;;;;;14.93;9.80;;;16.00;66.60;;;;;;5014445;28;20046;-61
2022/03/11 12:10:34;;;;;;;14.10;9.85;;;16.00;66.60;;;;;;5014457;28;20495;-63
2022/03/11 12:13:02;;;;;;;15.80;9.55;;;15.90;66.50;;;;;;5013393;28;20055;-61
2022/03/11 12:15:31;;;;;;;14.73;9.05;;;16.30;63.50;;;;;;5014460;28;20395;-65
2022/03/11 12:18:03;;;;;;;18.83;9.45;;;16.10;66.30;;;;;;5014222;28;20480;-62
2022/03/11 12:20:38;;;;;;;13.65;9.35;;;16.20;66.20;;;;;;5013292;28;20038;-62
2022/03/11 12:23:16;;;;;;;15.70;9.65;;;16.10;66.20;;;;;;5014486;28;20041;-61
2022/03/11 12:25:46;;;;;;;16.40;8.93;;;16.00;66.00;;;;;;5012849;28;20057;-61
2022/03/11 12:28:29;;;;;;;15.73;8.98;;;15.90;61.80;;;;;;5014727;28;20058;-61
2022/03/11 12:31:01;;;;;;;13.75;8.65;;;16.00;66.00;;;;;;5014117;28;20057;-62
2022/03/11 12:33:34;;;;;;;17.60;9.13;;;;;;;;;;5012933;28;20050;-62
2022/03/11 12:36:00;;;;;;;15.18;8.63;;;16.10;66.00;;;;;;5011974;28;20045;-62
2022/03/11 12:38:33;;;;;;;13.68;8.93;;;16.30;66.00;;;;;;5014036;28;20046;-61